sensor_id;sensor_type;location;lat;lon;timestamp;P1;durP1;ratioP1;P2;durP2;ratioP2
36415;SDS011;22447;44.530;18.620;2023-02-02T00:00:46;338.02;;;145.20;;
36415;SDS011;22447;44.530;18.620;2023-02-02T00:03:12;328.23;;;142.23;;
36415;SDS011;22447;44.530;18.620;2023-02-02T00:05:43;394.33;;;163.20;;
36415;SDS011;22447;44.530;18.620;2023-02-02T00:08:14;389.83;;;168.25;;
36415;SDS011;22447;44.530;18.620;2023-02-02T00:10:41;424.33;;;184.30;;
36415;SDS011;22447;44.530;18.620;2023-02-02T00:13:07;395.63;;;174.57;;
36415;SDS011;22447;44.530;18.620;2023-02-02T00:15:33;384.02;;;167.80;;
36415;SDS011;22447;44.530;18.620;2023-02-02T00:17:59;377.77;;;164.77;;
36415;SDS011;22447;44.530;18.620;2023-02-02T00:20:25;378.48;;;164.07;;
36415;SDS011;22447;44.530;18.620;2023-02-02T00:22:51;374.23;;;158.23;;
36415;SDS011;22447;44.530;18.620;2023-02-02T00:25:17;347.35;;;154.30;;
36415;SDS011;22447;44.530;18.620;2023-02-02T00:27:43;377.25;;;160.10;;
36415;SDS011;22447;44.530;18.620;2023-02-02T00:30:09;707.55;;;307.98;;
36415;SDS011;22447;44.530;18.620;2023-02-02T00:32:36;1036.72;;;434.83;;
36415;SDS011;22447;44.530;18.620;2023-02-02T00:35:02;858.65;;;361.08;;
36415;SDS011;22447;44.530;18.620;2023-02-02T00:37:28;822.40;;;351.55;;
36415;SDS011;22447;44.530;18.620;2023-02-02T00:39:54;751.67;;;312.85;;
36415;SDS011;22447;44.530;18.620;2023-02-02T00:42:19;626.72;;;257.95;;
36415;SDS011;22447;44.530;18.620;2023-02-02T00:44:45;634.92;;;263.38;;
36415;SDS011;22447;44.530;18.620;2023-02-02T00:47:30;630.20;;;260.83;;
36415;SDS011;22447;44.530;18.620;2023-02-02T00:49:55;524.15;;;219.95;;
36415;SDS011;22447;44.530;18.620;2023-02-02T00:52:21;552.58;;;241.80;;
36415;SDS011;22447;44.530;18.620;2023-02-02T00:54:47;533.55;;;237.40;;
36415;SDS011;22447;44.530;18.620;2023-02-02T00:57:13;542.22;;;243.15;;
36415;SDS011;22447;44.530;18.620;2023-02-02T00:59:40;505.70;;;225.32;;
36415;SDS011;22447;44.530;18.620;2023-02-02T01:02:08;491.13;;;221.73;;
36415;SDS011;22447;44.530;18.620;2023-02-02T01:04:35;505.63;;;228.82;;
36415;SDS011;22447;44.530;18.620;2023-02-02T01:07:01;503.95;;;222.90;;
36415;SDS011;22447;44.530;18.620;2023-02-02T01:09:28;461.33;;;203.07;;
36415;SDS011;22447;44.530;18.620;2023-02-02T01:11:54;409.83;;;182.35;;
36415;SDS011;22447;44.530;18.620;2023-02-02T01:14:20;385.38;;;166.45;;
36415;SDS011;22447;44.530;18.620;2023-02-02T01:16:46;399.33;;;165.98;;
36415;SDS011;22447;44.530;18.620;2023-02-02T01:19:12;393.77;;;172.52;;
36415;SDS011;22447;44.530;18.620;2023-02-02T01:21:39;375.30;;;160.52;;
36415;SDS011;22447;44.530;18.620;2023-02-02T01:24:05;372.30;;;169.52;;
36415;SDS011;22447;44.530;18.620;2023-02-02T01:26:31;412.67;;;182.82;;
36415;SDS011;22447;44.530;18.620;2023-02-02T01:28:57;422.27;;;186.93;;
36415;SDS011;22447;44.530;18.620;2023-02-02T01:31:23;516.70;;;231.52;;
36415;SDS011;22447;44.530;18.620;2023-02-02T01:33:49;525.97;;;233.48;;
36415;SDS011;22447;44.530;18.620;2023-02-02T01:36:16;510.02;;;219.43;;
36415;SDS011;22447;44.530;18.620;2023-02-02T01:38:45;483.48;;;210.25;;
36415;SDS011;22447;44.530;18.620;2023-02-02T01:41:13;445.00;;;190.38;;
36415;SDS011;22447;44.530;18.620;2023-02-02T01:46:12;404.88;;;172.23;;
36415;SDS011;22447;44.530;18.620;2023-02-02T01:48:40;386.17;;;164.88;;
36415;SDS011;22447;44.530;18.620;2023-02-02T01:51:12;354.58;;;150.75;;
36415;SDS011;22447;44.530;18.620;2023-02-02T01:53:41;290.17;;;128.25;;
36415;SDS011;22447;44.530;18.620;2023-02-02T01:56:09;353.48;;;152.68;;
36415;SDS011;22447;44.530;18.620;2023-02-02T01:58:40;353.88;;;153.95;;
36415;SDS011;22447;44.530;18.620;2023-02-02T02:01:08;310.25;;;133.98;;
36415;SDS011;22447;44.530;18.620;2023-02-02T02:03:34;369.05;;;160.68;;
36415;SDS011;22447;44.530;18.620;2023-02-02T02:06:03;492.15;;;213.38;;
36415;SDS011;22447;44.530;18.620;2023-02-02T02:11:25;478.83;;;209.35;;
36415;SDS011;22447;44.530;18.620;2023-02-02T02:13:51;503.45;;;220.55;;
36415;SDS011;22447;44.530;18.620;2023-02-02T02:22:23;279.13;;;124.50;;
36415;SDS011;22447;44.530;18.620;2023-02-02T02:37:09;386.63;;;158.95;;
36415;SDS011;22447;44.530;18.620;2023-02-02T02:42:21;339.83;;;153.32;;
36415;SDS011;22447;44.530;18.620;2023-02-02T02:44:50;334.57;;;150.83;;
36415;SDS011;22447;44.530;18.620;2023-02-02T02:47:19;323.80;;;141.35;;
36415;SDS011;22447;44.530;18.620;2023-02-02T02:49:46;310.17;;;137.80;;
36415;SDS011;22447;44.530;18.620;2023-02-02T02:52:13;297.55;;;134.45;;
36415;SDS011;22447;44.530;18.620;2023-02-02T02:54:48;287.17;;;130.05;;
36415;SDS011;22447;44.530;18.620;2023-02-02T03:05:00;287.58;;;133.77;;
36415;SDS011;22447;44.530;18.620;2023-02-02T03:07:51;274.05;;;124.35;;
36415;SDS011;22447;44.530;18.620;2023-02-02T03:10:28;273.15;;;123.60;;
36415;SDS011;22447;44.530;18.620;2023-02-02T03:12:55;286.80;;;130.65;;
36415;SDS011;22447;44.530;18.620;2023-02-02T03:15:22;278.05;;;131.82;;
36415;SDS011;22447;44.530;18.620;2023-02-02T03:17:49;282.27;;;134.35;;
36415;SDS011;22447;44.530;18.620;2023-02-02T03:20:17;275.58;;;132.65;;
36415;SDS011;22447;44.530;18.620;2023-02-02T03:22:43;275.63;;;126.78;;
36415;SDS011;22447;44.530;18.620;2023-02-02T03:25:09;268.77;;;127.05;;
36415;SDS011;22447;44.530;18.620;2023-02-02T03:27:38;295.70;;;136.10;;
36415;SDS011;22447;44.530;18.620;2023-02-02T03:30:05;398.10;;;172.35;;
36415;SDS011;22447;44.530;18.620;2023-02-02T03:32:33;488.85;;;206.27;;
36415;SDS011;22447;44.530;18.620;2023-02-02T03:35:00;452.08;;;197.27;;
36415;SDS011;22447;44.530;18.620;2023-02-02T03:37:26;404.40;;;176.30;;
36415;SDS011;22447;44.530;18.620;2023-02-02T03:39:52;308.48;;;138.02;;
36415;SDS011;22447;44.530;18.620;2023-02-02T03:42:18;244.77;;;111.47;;
36415;SDS011;22447;44.530;18.620;2023-02-02T03:44:44;228.95;;;102.05;;
36415;SDS011;22447;44.530;18.620;2023-02-02T03:47:10;250.85;;;113.35;;
36415;SDS011;22447;44.530;18.620;2023-02-02T03:49:36;213.50;;;100.28;;
36415;SDS011;22447;44.530;18.620;2023-02-02T03:52:02;220.50;;;103.32;;
36415;SDS011;22447;44.530;18.620;2023-02-02T03:54:29;270.90;;;118.60;;
36415;SDS011;22447;44.530;18.620;2023-02-02T03:56:55;264.02;;;118.05;;
36415;SDS011;22447;44.530;18.620;2023-02-02T03:59:21;252.23;;;115.60;;
36415;SDS011;22447;44.530;18.620;2023-02-02T04:01:48;252.57;;;111.25;;
36415;SDS011;22447;44.530;18.620;2023-02-02T04:04:14;270.27;;;122.70;;
36415;SDS011;22447;44.530;18.620;2023-02-02T04:06:40;272.17;;;123.30;;
36415;SDS011;22447;44.530;18.620;2023-02-02T04:09:06;276.17;;;124.28;;
36415;SDS011;22447;44.530;18.620;2023-02-02T04:11:32;249.52;;;112.90;;
36415;SDS011;22447;44.530;18.620;2023-02-02T04:13:58;241.95;;;107.63;;
36415;SDS011;22447;44.530;18.620;2023-02-02T04:16:23;215.68;;;102.03;;
36415;SDS011;22447;44.530;18.620;2023-02-02T04:18:50;206.40;;;96.00;;
36415;SDS011;22447;44.530;18.620;2023-02-02T04:21:15;178.82;;;83.47;;
36415;SDS011;22447;44.530;18.620;2023-02-02T04:23:41;184.43;;;90.38;;
36415;SDS011;22447;44.530;18.620;2023-02-02T04:26:07;179.02;;;81.95;;
36415;SDS011;22447;44.530;18.620;2023-02-02T04:28:33;163.73;;;80.55;;
36415;SDS011;22447;44.530;18.620;2023-02-02T04:30:59;156.80;;;76.38;;
36415;SDS011;22447;44.530;18.620;2023-02-02T04:33:26;140.75;;;67.88;;
36415;SDS011;22447;44.530;18.620;2023-02-02T04:35:52;144.23;;;71.25;;
36415;SDS011;22447;44.530;18.620;2023-02-02T04:38:19;149.85;;;72.40;;
36415;SDS011;22447;44.530;18.620;2023-02-02T04:40:46;148.50;;;74.20;;
36415;SDS011;22447;44.530;18.620;2023-02-02T04:43:12;172.15;;;86.05;;
36415;SDS011;22447;44.530;18.620;2023-02-02T04:45:38;152.38;;;74.45;;
36415;SDS011;22447;44.530;18.620;2023-02-02T04:48:06;133.85;;;64.88;;
36415;SDS011;22447;44.530;18.620;2023-02-02T04:50:32;156.82;;;73.25;;
36415;SDS011;22447;44.530;18.620;2023-02-02T04:52:58;149.55;;;72.43;;
36415;SDS011;22447;44.530;18.620;2023-02-02T04:55:24;140.88;;;66.47;;
36415;SDS011;22447;44.530;18.620;2023-02-02T04:57:50;153.48;;;71.90;;
36415;SDS011;22447;44.530;18.620;2023-02-02T05:00:16;137.57;;;68.13;;
36415;SDS011;22447;44.530;18.620;2023-02-02T05:02:42;152.82;;;74.93;;
36415;SDS011;22447;44.530;18.620;2023-02-02T05:05:09;143.98;;;70.53;;
36415;SDS011;22447;44.530;18.620;2023-02-02T05:07:36;158.02;;;77.75;;
36415;SDS011;22447;44.530;18.620;2023-02-02T05:10:04;163.80;;;79.65;;
36415;SDS011;22447;44.530;18.620;2023-02-02T05:12:31;154.52;;;74.68;;
36415;SDS011;22447;44.530;18.620;2023-02-02T05:14:57;151.48;;;73.22;;
36415;SDS011;22447;44.530;18.620;2023-02-02T05:17:25;162.85;;;79.78;;
36415;SDS011;22447;44.530;18.620;2023-02-02T05:19:52;162.23;;;77.80;;
36415;SDS011;22447;44.530;18.620;2023-02-02T05:22:17;152.00;;;75.30;;
36415;SDS011;22447;44.530;18.620;2023-02-02T05:24:43;132.00;;;66.88;;
36415;SDS011;22447;44.530;18.620;2023-02-02T05:27:09;173.73;;;85.70;;
36415;SDS011;22447;44.530;18.620;2023-02-02T05:29:35;181.93;;;89.45;;
36415;SDS011;22447;44.530;18.620;2023-02-02T05:32:01;186.70;;;91.80;;
36415;SDS011;22447;44.530;18.620;2023-02-02T05:34:27;167.73;;;86.00;;
36415;SDS011;22447;44.530;18.620;2023-02-02T05:36:53;175.75;;;85.90;;
36415;SDS011;22447;44.530;18.620;2023-02-02T05:39:19;180.05;;;87.63;;
36415;SDS011;22447;44.530;18.620;2023-02-02T05:41:45;182.60;;;91.00;;
36415;SDS011;22447;44.530;18.620;2023-02-02T05:44:12;175.43;;;88.70;;
36415;SDS011;22447;44.530;18.620;2023-02-02T05:46:40;173.07;;;84.53;;
36415;SDS011;22447;44.530;18.620;2023-02-02T05:49:07;164.15;;;81.45;;
36415;SDS011;22447;44.530;18.620;2023-02-02T05:51:38;171.43;;;118.88;;
36415;SDS011;22447;44.530;18.620;2023-02-02T05:56:33;139.35;;;69.68;;
36415;SDS011;22447;44.530;18.620;2023-02-02T05:58:59;199.77;;;96.85;;
36415;SDS011;22447;44.530;18.620;2023-02-02T06:01:25;191.40;;;95.13;;
36415;SDS011;22447;44.530;18.620;2023-02-02T06:03:51;182.00;;;90.72;;
36415;SDS011;22447;44.530;18.620;2023-02-02T06:06:17;187.75;;;90.13;;
36415;SDS011;22447;44.530;18.620;2023-02-02T06:08:42;183.43;;;89.35;;
36415;SDS011;22447;44.530;18.620;2023-02-02T06:11:12;196.23;;;94.38;;
36415;SDS011;22447;44.530;18.620;2023-02-02T06:13:40;177.77;;;88.57;;
36415;SDS011;22447;44.530;18.620;2023-02-02T06:16:07;172.50;;;90.00;;
36415;SDS011;22447;44.530;18.620;2023-02-02T06:18:33;179.40;;;86.05;;
36415;SDS011;22447;44.530;18.620;2023-02-02T06:21:01;164.63;;;85.85;;
36415;SDS011;22447;44.530;18.620;2023-02-02T06:23:28;181.90;;;92.60;;
36415;SDS011;22447;44.530;18.620;2023-02-02T06:25:54;166.98;;;85.60;;
36415;SDS011;22447;44.530;18.620;2023-02-02T06:28:20;163.95;;;84.60;;
36415;SDS011;22447;44.530;18.620;2023-02-02T06:30:46;184.38;;;84.82;;
36415;SDS011;22447;44.530;18.620;2023-02-02T06:33:12;182.02;;;89.45;;
36415;SDS011;22447;44.530;18.620;2023-02-02T06:35:38;172.90;;;90.22;;
36415;SDS011;22447;44.530;18.620;2023-02-02T06:38:04;182.80;;;91.30;;
36415;SDS011;22447;44.530;18.620;2023-02-02T06:40:30;151.48;;;73.45;;
36415;SDS011;22447;44.530;18.620;2023-02-02T06:42:57;144.85;;;72.82;;
36415;SDS011;22447;44.530;18.620;2023-02-02T06:45:24;152.63;;;76.72;;
36415;SDS011;22447;44.530;18.620;2023-02-02T06:47:50;190.05;;;95.90;;
36415;SDS011;22447;44.530;18.620;2023-02-02T06:50:17;181.82;;;93.45;;
36415;SDS011;22447;44.530;18.620;2023-02-02T06:52:47;154.30;;;77.03;;
36415;SDS011;22447;44.530;18.620;2023-02-02T06:55:14;164.23;;;82.80;;
36415;SDS011;22447;44.530;18.620;2023-02-02T06:57:42;169.18;;;87.50;;
36415;SDS011;22447;44.530;18.620;2023-02-02T07:00:08;174.70;;;89.63;;
36415;SDS011;22447;44.530;18.620;2023-02-02T07:02:35;169.13;;;85.63;;
36415;SDS011;22447;44.530;18.620;2023-02-02T07:05:01;200.60;;;98.10;;
36415;SDS011;22447;44.530;18.620;2023-02-02T07:07:30;227.73;;;113.57;;
36415;SDS011;22447;44.530;18.620;2023-02-02T07:09:57;277.63;;;142.20;;
36415;SDS011;22447;44.530;18.620;2023-02-02T07:12:23;257.20;;;126.10;;
36415;SDS011;22447;44.530;18.620;2023-02-02T07:14:51;191.30;;;98.82;;
36415;SDS011;22447;44.530;18.620;2023-02-02T07:17:17;240.90;;;118.43;;
36415;SDS011;22447;44.530;18.620;2023-02-02T07:19:43;242.32;;;116.43;;
36415;SDS011;22447;44.530;18.620;2023-02-02T07:22:09;229.65;;;111.25;;
36415;SDS011;22447;44.530;18.620;2023-02-02T07:24:35;268.40;;;125.68;;
36415;SDS011;22447;44.530;18.620;2023-02-02T07:27:03;288.83;;;138.20;;
36415;SDS011;22447;44.530;18.620;2023-02-02T07:29:29;312.70;;;145.85;;
36415;SDS011;22447;44.530;18.620;2023-02-02T07:31:55;262.80;;;124.13;;
36415;SDS011;22447;44.530;18.620;2023-02-02T07:34:21;309.88;;;147.27;;
36415;SDS011;22447;44.530;18.620;2023-02-02T07:36:47;271.67;;;134.18;;
36415;SDS011;22447;44.530;18.620;2023-02-02T07:39:13;133.18;;;66.75;;
36415;SDS011;22447;44.530;18.620;2023-02-02T07:41:39;99.68;;;50.53;;
36415;SDS011;22447;44.530;18.620;2023-02-02T07:44:14;325.88;;;158.23;;
36415;SDS011;22447;44.530;18.620;2023-02-02T07:46:44;349.13;;;169.88;;
36415;SDS011;22447;44.530;18.620;2023-02-02T07:49:14;325.10;;;161.25;;
36415;SDS011;22447;44.530;18.620;2023-02-02T07:51:42;271.10;;;128.57;;
36415;SDS011;22447;44.530;18.620;2023-02-02T07:54:09;276.65;;;134.43;;
36415;SDS011;22447;44.530;18.620;2023-02-02T07:56:36;262.20;;;130.30;;
36415;SDS011;22447;44.530;18.620;2023-02-02T07:59:02;247.73;;;121.18;;
36415;SDS011;22447;44.530;18.620;2023-02-02T08:01:28;241.35;;;114.82;;
36415;SDS011;22447;44.530;18.620;2023-02-02T08:03:55;219.80;;;110.03;;
36415;SDS011;22447;44.530;18.620;2023-02-02T08:06:24;222.18;;;115.32;;
36415;SDS011;22447;44.530;18.620;2023-02-02T08:08:52;213.32;;;108.50;;
36415;SDS011;22447;44.530;18.620;2023-02-02T08:11:20;210.40;;;112.97;;
36415;SDS011;22447;44.530;18.620;2023-02-02T08:13:47;226.65;;;119.25;;
36415;SDS011;22447;44.530;18.620;2023-02-02T08:16:15;210.82;;;109.45;;
36415;SDS011;22447;44.530;18.620;2023-02-02T08:18:41;208.23;;;109.78;;
36415;SDS011;22447;44.530;18.620;2023-02-02T08:21:08;233.52;;;125.43;;
36415;SDS011;22447;44.530;18.620;2023-02-02T08:23:35;227.63;;;120.90;;
36415;SDS011;22447;44.530;18.620;2023-02-02T08:26:12;210.98;;;106.25;;
36415;SDS011;22447;44.530;18.620;2023-02-02T08:28:39;193.07;;;94.95;;
36415;SDS011;22447;44.530;18.620;2023-02-02T08:31:11;190.93;;;96.22;;
36415;SDS011;22447;44.530;18.620;2023-02-02T08:33:39;202.98;;;100.10;;
36415;SDS011;22447;44.530;18.620;2023-02-02T08:36:08;215.05;;;107.57;;
36415;SDS011;22447;44.530;18.620;2023-02-02T08:38:37;212.48;;;104.70;;
36415;SDS011;22447;44.530;18.620;2023-02-02T08:41:04;156.18;;;77.45;;
36415;SDS011;22447;44.530;18.620;2023-02-02T08:43:31;112.00;;;48.85;;
36415;SDS011;22447;44.530;18.620;2023-02-02T08:45:57;87.35;;;41.85;;
36415;SDS011;22447;44.530;18.620;2023-02-02T08:48:23;33.75;;;16.15;;
36415;SDS011;22447;44.530;18.620;2023-02-02T08:50:56;17.23;;;9.82;;
36415;SDS011;22447;44.530;18.620;2023-02-02T08:53:23;31.23;;;10.85;;
36415;SDS011;22447;44.530;18.620;2023-02-02T08:58:30;50.97;;;11.68;;
36415;SDS011;22447;44.530;18.620;2023-02-02T09:01:09;24.58;;;9.52;;
36415;SDS011;22447;44.530;18.620;2023-02-02T09:06:14;14.65;;;7.85;;
36415;SDS011;22447;44.530;18.620;2023-02-02T09:08:42;40.00;;;11.65;;
36415;SDS011;22447;44.530;18.620;2023-02-02T09:11:09;39.95;;;11.85;;
36415;SDS011;22447;44.530;18.620;2023-02-02T09:13:37;12.48;;;6.75;;
36415;SDS011;22447;44.530;18.620;2023-02-02T09:16:05;32.67;;;8.60;;
36415;SDS011;22447;44.530;18.620;2023-02-02T09:18:33;14.05;;;6.43;;
36415;SDS011;22447;44.530;18.620;2023-02-02T09:21:00;37.75;;;8.80;;
36415;SDS011;22447;44.530;18.620;2023-02-02T09:23:29;18.80;;;6.97;;
36415;SDS011;22447;44.530;18.620;2023-02-02T09:25:56;19.95;;;8.95;;
36415;SDS011;22447;44.530;18.620;2023-02-02T09:28:22;17.55;;;7.30;;
36415;SDS011;22447;44.530;18.620;2023-02-02T09:30:48;31.15;;;9.90;;
36415;SDS011;22447;44.530;18.620;2023-02-02T09:33:14;26.98;;;15.05;;
36415;SDS011;22447;44.530;18.620;2023-02-02T09:35:40;21.00;;;8.20;;
36415;SDS011;22447;44.530;18.620;2023-02-02T09:38:06;26.05;;;9.85;;
36415;SDS011;22447;44.530;18.620;2023-02-02T09:40:31;17.08;;;6.28;;
36415;SDS011;22447;44.530;18.620;2023-02-02T09:45:49;14.68;;;6.93;;
36415;SDS011;22447;44.530;18.620;2023-02-02T09:51:08;37.22;;;8.27;;
36415;SDS011;22447;44.530;18.620;2023-02-02T09:53:44;11.80;;;4.97;;
36415;SDS011;22447;44.530;18.620;2023-02-02T09:56:26;17.77;;;5.63;;
36415;SDS011;22447;44.530;18.620;2023-02-02T09:58:59;18.50;;;6.10;;
36415;SDS011;22447;44.530;18.620;2023-02-02T10:01:35;25.33;;;6.65;;
36415;SDS011;22447;44.530;18.620;2023-02-02T10:04:09;21.38;;;7.05;;
36415;SDS011;22447;44.530;18.620;2023-02-02T10:06:50;15.40;;;5.68;;
36415;SDS011;22447;44.530;18.620;2023-02-02T10:20:14;24.05;;;6.97;;
36415;SDS011;22447;44.530;18.620;2023-02-02T10:22:41;19.75;;;5.90;;
36415;SDS011;22447;44.530;18.620;2023-02-02T10:25:12;24.75;;;7.05;;
36415;SDS011;22447;44.530;18.620;2023-02-02T10:27:40;17.23;;;5.60;;
36415;SDS011;22447;44.530;18.620;2023-02-02T10:32:57;7.70;;;4.20;;
36415;SDS011;22447;44.530;18.620;2023-02-02T10:38:09;6.10;;;4.18;;
36415;SDS011;22447;44.530;18.620;2023-02-02T10:46:26;16.35;;;5.80;;
36415;SDS011;22447;44.530;18.620;2023-02-02T10:49:16;25.90;;;6.22;;
36415;SDS011;22447;44.530;18.620;2023-02-02T10:52:37;23.05;;;7.63;;
36415;SDS011;22447;44.530;18.620;2023-02-02T10:55:13;8.65;;;4.75;;
36415;SDS011;22447;44.530;18.620;2023-02-02T10:58:05;16.13;;;5.47;;
36415;SDS011;22447;44.530;18.620;2023-02-02T11:03:12;11.82;;;4.55;;
36415;SDS011;22447;44.530;18.620;2023-02-02T11:05:40;20.33;;;6.70;;
36415;SDS011;22447;44.530;18.620;2023-02-02T11:08:32;19.67;;;6.40;;
36415;SDS011;22447;44.530;18.620;2023-02-02T11:13:43;25.77;;;6.93;;
36415;SDS011;22447;44.530;18.620;2023-02-02T11:16:18;24.38;;;8.48;;
36415;SDS011;22447;44.530;18.620;2023-02-02T11:18:46;19.48;;;7.38;;
36415;SDS011;22447;44.530;18.620;2023-02-02T11:26:25;38.90;;;9.38;;
36415;SDS011;22447;44.530;18.620;2023-02-02T11:29:05;22.15;;;7.60;;
36415;SDS011;22447;44.530;18.620;2023-02-02T11:31:39;27.73;;;7.13;;
36415;SDS011;22447;44.530;18.620;2023-02-02T11:34:09;21.60;;;8.07;;
36415;SDS011;22447;44.530;18.620;2023-02-02T11:37:25;15.60;;;5.88;;
36415;SDS011;22447;44.530;18.620;2023-02-02T11:39:39;11.52;;;6.00;;
36415;SDS011;22447;44.530;18.620;2023-02-02T11:42:07;26.23;;;9.15;;
36415;SDS011;22447;44.530;18.620;2023-02-02T11:44:45;25.33;;;8.63;;
36415;SDS011;22447;44.530;18.620;2023-02-02T11:49:43;19.73;;;7.15;;
36415;SDS011;22447;44.530;18.620;2023-02-02T11:52:19;21.95;;;7.72;;
36415;SDS011;22447;44.530;18.620;2023-02-02T11:54:52;15.43;;;6.60;;
36415;SDS011;22447;44.530;18.620;2023-02-02T11:57:24;13.30;;;6.38;;
36415;SDS011;22447;44.530;18.620;2023-02-02T12:00:10;25.52;;;8.57;;
36415;SDS011;22447;44.530;18.620;2023-02-02T12:02:45;14.43;;;8.07;;
36415;SDS011;22447;44.530;18.620;2023-02-02T12:07:45;53.47;;;15.77;;
36415;SDS011;22447;44.530;18.620;2023-02-02T12:20:53;66.70;;;25.73;;
36415;SDS011;22447;44.530;18.620;2023-02-02T12:26:30;75.68;;;31.95;;
36415;SDS011;22447;44.530;18.620;2023-02-02T12:51:31;28.35;;;15.02;;
36415;SDS011;22447;44.530;18.620;2023-02-02T13:03:15;45.05;;;16.35;;
36415;SDS011;22447;44.530;18.620;2023-02-02T13:08:20;41.55;;;17.30;;
36415;SDS011;22447;44.530;18.620;2023-02-02T13:10:56;37.97;;;16.65;;
36415;SDS011;22447;44.530;18.620;2023-02-02T13:13:29;66.32;;;18.65;;
36415;SDS011;22447;44.530;18.620;2023-02-02T13:16:04;42.85;;;17.40;;
36415;SDS011;22447;44.530;18.620;2023-02-02T13:21:16;52.35;;;16.85;;
36415;SDS011;22447;44.530;18.620;2023-02-02T13:23:49;48.72;;;16.30;;
36415;SDS011;22447;44.530;18.620;2023-02-02T13:26:19;36.03;;;14.75;;
36415;SDS011;22447;44.530;18.620;2023-02-02T13:28:57;30.30;;;13.95;;
36415;SDS011;22447;44.530;18.620;2023-02-02T13:31:55;26.23;;;13.15;;
36415;SDS011;22447;44.530;18.620;2023-02-02T13:37:19;19.13;;;10.00;;
36415;SDS011;22447;44.530;18.620;2023-02-02T13:40:17;29.27;;;11.15;;
36415;SDS011;22447;44.530;18.620;2023-02-02T13:48:34;102.00;;;32.72;;
36415;SDS011;22447;44.530;18.620;2023-02-02T13:51:21;156.27;;;47.38;;
36415;SDS011;22447;44.530;18.620;2023-02-02T14:00:17;49.35;;;19.58;;
36415;SDS011;22447;44.530;18.620;2023-02-02T14:02:48;44.60;;;18.33;;
36415;SDS011;22447;44.530;18.620;2023-02-02T14:08:03;26.25;;;13.60;;
36415;SDS011;22447;44.530;18.620;2023-02-02T14:13:20;36.83;;;13.00;;
36415;SDS011;22447;44.530;18.620;2023-02-02T14:16:19;27.58;;;12.52;;
36415;SDS011;22447;44.530;18.620;2023-02-02T14:19:16;21.58;;;11.93;;
36415;SDS011;22447;44.530;18.620;2023-02-02T14:29:34;31.75;;;12.98;;
36415;SDS011;22447;44.530;18.620;2023-02-02T14:35:51;32.75;;;14.13;;
36415;SDS011;22447;44.530;18.620;2023-02-02T14:40:42;28.25;;;14.52;;
36415;SDS011;22447;44.530;18.620;2023-02-02T14:48:47;27.70;;;12.95;;
36415;SDS011;22447;44.530;18.620;2023-02-02T14:51:48;30.50;;;14.50;;
36415;SDS011;22447;44.530;18.620;2023-02-02T14:54:22;41.70;;;19.30;;
36415;SDS011;22447;44.530;18.620;2023-02-02T14:57:00;39.03;;;17.23;;
36415;SDS011;22447;44.530;18.620;2023-02-02T14:59:36;47.60;;;20.88;;
36415;SDS011;22447;44.530;18.620;2023-02-02T15:04:41;32.05;;;14.18;;
36415;SDS011;22447;44.530;18.620;2023-02-02T15:09:47;56.55;;;19.70;;
36415;SDS011;22447;44.530;18.620;2023-02-02T15:12:43;35.47;;;17.45;;
36415;SDS011;22447;44.530;18.620;2023-02-02T15:15:15;79.65;;;31.83;;
36415;SDS011;22447;44.530;18.620;2023-02-02T15:17:47;24.63;;;11.07;;
36415;SDS011;22447;44.530;18.620;2023-02-02T15:20:39;40.80;;;15.50;;
36415;SDS011;22447;44.530;18.620;2023-02-02T15:31:18;94.93;;;36.67;;
36415;SDS011;22447;44.530;18.620;2023-02-02T15:33:49;38.08;;;17.30;;
36415;SDS011;22447;44.530;18.620;2023-02-02T15:36:24;28.33;;;12.70;;
36415;SDS011;22447;44.530;18.620;2023-02-02T15:39:03;85.85;;;33.95;;
36415;SDS011;22447;44.530;18.620;2023-02-02T15:41:36;157.95;;;64.38;;
36415;SDS011;22447;44.530;18.620;2023-02-02T15:44:20;106.72;;;44.22;;
36415;SDS011;22447;44.530;18.620;2023-02-02T15:46:51;78.22;;;35.65;;
36415;SDS011;22447;44.530;18.620;2023-02-02T15:51:53;56.50;;;23.08;;
36415;SDS011;22447;44.530;18.620;2023-02-02T15:54:23;48.42;;;20.25;;
36415;SDS011;22447;44.530;18.620;2023-02-02T15:56:50;55.45;;;23.50;;
36415;SDS011;22447;44.530;18.620;2023-02-02T15:59:21;35.47;;;13.82;;
36415;SDS011;22447;44.530;18.620;2023-02-02T16:07:02;36.88;;;14.00;;
36415;SDS011;22447;44.530;18.620;2023-02-02T16:09:32;60.05;;;20.70;;
36415;SDS011;22447;44.530;18.620;2023-02-02T16:12:00;43.05;;;16.83;;
36415;SDS011;22447;44.530;18.620;2023-02-02T16:14:28;35.75;;;14.38;;
36415;SDS011;22447;44.530;18.620;2023-02-02T16:16:55;23.70;;;11.63;;
36415;SDS011;22447;44.530;18.620;2023-02-02T16:19:35;91.25;;;36.85;;
36415;SDS011;22447;44.530;18.620;2023-02-02T16:22:03;47.70;;;21.08;;
36415;SDS011;22447;44.530;18.620;2023-02-02T16:24:33;48.75;;;21.13;;
36415;SDS011;22447;44.530;18.620;2023-02-02T16:27:02;62.28;;;26.90;;
36415;SDS011;22447;44.530;18.620;2023-02-02T16:29:30;67.07;;;30.98;;
36415;SDS011;22447;44.530;18.620;2023-02-02T16:31:57;34.35;;;14.07;;
36415;SDS011;22447;44.530;18.620;2023-02-02T16:37:15;38.42;;;12.93;;
36415;SDS011;22447;44.530;18.620;2023-02-02T16:39:46;27.58;;;11.65;;
36415;SDS011;22447;44.530;18.620;2023-02-02T16:42:26;38.25;;;18.08;;
36415;SDS011;22447;44.530;18.620;2023-02-02T16:44:56;28.23;;;15.35;;
36415;SDS011;22447;44.530;18.620;2023-02-02T16:49:53;32.38;;;15.85;;
36415;SDS011;22447;44.530;18.620;2023-02-02T16:52:32;38.17;;;16.17;;
36415;SDS011;22447;44.530;18.620;2023-02-02T16:55:14;32.22;;;13.98;;
36415;SDS011;22447;44.530;18.620;2023-02-02T16:57:41;31.73;;;14.80;;
36415;SDS011;22447;44.530;18.620;2023-02-02T17:00:23;30.05;;;15.20;;
36415;SDS011;22447;44.530;18.620;2023-02-02T17:02:54;30.90;;;12.85;;
36415;SDS011;22447;44.530;18.620;2023-02-02T17:05:51;35.20;;;13.68;;
36415;SDS011;22447;44.530;18.620;2023-02-02T17:08:33;35.25;;;13.13;;
36415;SDS011;22447;44.530;18.620;2023-02-02T17:13:49;26.30;;;10.82;;
36415;SDS011;22447;44.530;18.620;2023-02-02T17:16:17;50.50;;;21.15;;
36415;SDS011;22447;44.530;18.620;2023-02-02T17:18:45;39.92;;;19.55;;
36415;SDS011;22447;44.530;18.620;2023-02-02T17:21:15;22.70;;;11.13;;
36415;SDS011;22447;44.530;18.620;2023-02-02T17:23:44;26.70;;;11.35;;
36415;SDS011;22447;44.530;18.620;2023-02-02T17:26:10;32.63;;;10.98;;
36415;SDS011;22447;44.530;18.620;2023-02-02T17:28:38;28.13;;;9.40;;
36415;SDS011;22447;44.530;18.620;2023-02-02T17:31:06;26.85;;;7.80;;
36415;SDS011;22447;44.530;18.620;2023-02-02T17:33:34;21.33;;;8.68;;
36415;SDS011;22447;44.530;18.620;2023-02-02T17:36:01;16.08;;;8.15;;
36415;SDS011;22447;44.530;18.620;2023-02-02T17:38:29;26.48;;;10.18;;